Time;durP1;ratioP1;P1;durP2;ratioP2;P2;SDS_P1;SDS_P2;PMS_P1;PMS_P2;Temp;Humidity;BMP_temperature;BMP_pressure;BME280_temperature;BME280_humidity;BME280_pressure;Samples;Min_cycle;Max_cycle;Signal;HPM_P1;HPM_P2
2021/04/07 00:01:33;;;;;;;5.90;0.95;;;0.50;99.90;;;;;;5044567;28;20029;-72
2021/04/07 00:03:59;;;;;;;2.22;1.45;;;0.50;99.90;;;;;;5044587;28;20083;-71
2021/04/07 00:06:24;;;;;;;9.00;1.50;;;0.50;99.90;;;;;;5044275;28;20056;-69
2021/04/07 00:08:51;;;;;;;1.17;0.63;;;0.50;99.90;;;;;;5044239;28;20029;-71
2021/04/07 00:11:17;;;;;;;13.68;1.80;;;0.60;99.90;;;;;;5045888;28;20022;-70
2021/04/07 00:13:45;;;;;;;7.53;1.35;;;0.50;99.90;;;;;;5048208;28;20021;-70
2021/04/07 00:16:11;;;;;;;6.72;1.13;;;0.40;99.90;;;;;;5048446;28;20059;-72
2021/04/07 00:18:37;;;;;;;6.38;1.42;;;0.40;99.90;;;;;;5047728;28;20050;-71
2021/04/07 00:21:04;;;;;;;2.50;1.27;;;0.40;99.90;;;;;;5048317;28;20044;-71
2021/04/07 00:23:29;;;;;;;7.80;1.67;;;0.40;99.90;;;;;;5048375;28;20036;-71
2021/04/07 00:25:55;;;;;;;11.00;1.33;;;0.40;99.90;;;;;;5048276;28;20617;-72
2021/04/07 00:28:21;;;;;;;0.88;0.55;;;0.40;99.90;;;;;;5047999;28;20037;-69
2021/04/07 00:30:48;;;;;;;3.55;1.73;;;0.40;99.90;;;;;;5046660;28;20033;-71
2021/04/07 00:33:16;;;;;;;4.35;1.38;;;0.40;99.90;;;;;;5047839;28;20033;-72
2021/04/07 00:35:42;;;;;;;1.50;0.75;;;0.40;99.90;;;;;;5046661;28;20494;-70
2021/04/07 00:38:08;;;;;;;5.00;2.08;;;0.40;99.90;;;;;;5048013;28;20041;-72
2021/04/07 00:40:35;;;;;;;3.90;0.82;;;0.40;99.90;;;;;;5046882;28;20036;-70
2021/04/07 00:43:03;;;;;;;3.10;0.75;;;0.50;99.90;;;;;;5047942;28;20390;-70
2021/04/07 00:45:28;;;;;;;1.17;0.77;;;0.50;99.90;;;;;;5047706;28;20478;-69
2021/04/07 00:47:55;;;;;;;5.13;1.80;;;0.50;99.90;;;;;;5046396;28;20029;-69
2021/04/07 00:50:26;;;;;;;3.85;2.10;;;0.60;99.90;;;;;;5047686;28;20112;-70
2021/04/07 00:52:52;;;;;;;18.00;7.47;;;0.60;99.90;;;;;;5047570;28;20033;-71
2021/04/07 00:55:20;;;;;;;18.95;8.90;;;0.60;99.90;;;;;;5047448;28;20065;-70
2021/04/07 00:57:47;;;;;;;18.70;9.68;;;0.70;99.90;;;;;;5047441;28;20091;-71
2021/04/07 01:00:14;;;;;;;29.08;12.55;;;0.70;99.90;;;;;;5047532;28;20085;-70
2021/04/07 01:02:40;;;;;;;38.75;14.55;;;0.80;99.90;;;;;;5047454;28;20052;-72
2021/04/07 01:05:08;;;;;;;38.45;14.75;;;0.80;99.90;;;;;;5045822;28;20032;-70
2021/04/07 01:07:34;;;;;;;40.40;15.25;;;0.80;99.90;;;;;;5047432;28;20033;-72
2021/04/07 01:10:00;;;;;;;29.92;10.45;;;0.80;99.90;;;;;;5046119;28;20026;-70
2021/04/07 01:12:26;;;;;;;14.05;7.57;;;0.80;99.90;;;;;;5047111;28;20470;-71
2021/04/07 01:14:52;;;;;;;23.63;7.30;;;0.80;99.90;;;;;;5047336;28;20078;-71
2021/04/07 01:17:18;;;;;;;9.27;3.75;;;0.80;99.90;;;;;;5047093;28;20112;-71
2021/04/07 01:19:44;;;;;;;6.72;2.78;;;0.80;99.90;;;;;;5046631;28;20738;-71
2021/04/07 01:22:13;;;;;;;7.25;2.60;;;0.70;99.90;;;;;;5046101;28;20029;-73
2021/04/07 01:24:39;;;;;;;14.82;4.28;;;0.70;99.90;;;;;;5046965;28;20084;-73
2021/04/07 01:27:05;;;;;;;7.78;3.47;;;0.70;99.90;;;;;;5045505;28;20041;-73
2021/04/07 01:29:31;;;;;;;8.35;2.83;;;0.70;99.90;;;;;;5045886;28;20033;-72
2021/04/07 01:31:57;;;;;;;3.88;1.58;;;0.70;99.90;;;;;;5046792;28;20083;-72
2021/04/07 01:34:27;;;;;;;10.48;2.85;;;;;;;;;;5046937;28;20022;-71
2021/04/07 01:36:54;;;;;;;2.28;1.55;;;;;;;;;;5045482;28;20120;-71
2021/04/07 01:39:21;;;;;;;7.85;1.70;;;0.60;99.90;;;;;;5046092;28;20030;-71
2021/04/07 01:41:48;;;;;;;2.35;1.40;;;0.50;99.90;;;;;;5045962;28;20036;-71
2021/04/07 01:44:15;;;;;;;2.42;1.25;;;0.50;99.90;;;;;;5044811;28;20033;-71
2021/04/07 01:46:41;;;;;;;2.45;1.10;;;0.40;99.90;;;;;;5046660;28;20034;-71
2021/04/07 01:49:08;;;;;;;3.13;0.88;;;0.40;99.90;;;;;;5046379;28;20075;-72
2021/04/07 01:51:35;;;;;;;2.38;1.00;;;0.40;99.90;;;;;;5046557;28;20087;-73
2021/04/07 01:54:07;;;;;;;3.45;0.80;;;0.40;99.90;;;;;;5045264;28;20033;-71
2021/04/07 01:56:44;;;;;;;0.45;0.45;;;0.40;99.90;;;;;;5046728;28;20060;-73
2021/04/07 01:59:10;;;;;;;1.30;0.80;;;;;;;;;;5046376;28;20060;-72
2021/04/07 02:01:39;;;;;;;1.15;1.05;;;0.50;99.90;;;;;;5046412;28;20470;-74
2021/04/07 02:04:06;;;;;;;2.67;1.10;;;0.30;99.90;;;;;;5046424;28;20505;-72
2021/04/07 02:06:32;;;;;;;7.30;1.77;;;0.30;99.90;;;;;;5044892;28;20036;-73
2021/04/07 02:08:58;;;;;;;1.67;0.65;;;0.40;99.90;;;;;;5046210;28;20116;-73
2021/04/07 02:11:24;;;;;;;2.40;0.35;;;0.30;99.90;;;;;;5046149;28;20028;-71
2021/04/07 02:13:50;;;;;;;4.28;1.30;;;0.30;99.90;;;;;;5045856;28;20022;-72
2021/04/07 02:16:16;;;;;;;2.65;1.00;;;0.30;99.90;;;;;;5046151;28;20036;-74
2021/04/07 02:18:43;;;;;;;4.53;1.10;;;;;;;;;;5045594;28;20042;-72
2021/04/07 02:21:10;;;;;;;6.80;0.88;;;;;;;;;;5044561;28;20509;-74
2021/04/07 02:23:37;;;;;;;4.65;0.95;;;;;;;;;;5046001;28;20474;-73
2021/04/07 02:26:07;;;;;;;8.88;1.23;;;;;;;;;;5045985;28;20131;-74
2021/04/07 02:28:34;;;;;;;6.97;0.68;;;;;;;;;;5045817;28;20104;-73
2021/04/07 02:31:00;;;;;;;1.52;0.63;;;;;;;;;;5044521;28;20021;-74
2021/04/07 02:33:26;;;;;;;1.35;0.82;;;;;;;;;;5045498;28;20124;-73
2021/04/07 02:35:52;;;;;;;10.02;1.83;;;;;;;;;;5045603;28;20025;-72
2021/04/07 02:38:18;;;;;;;2.30;1.23;;;;;;;;;;5044386;28;20128;-72
2021/04/07 02:40:44;;;;;;;9.05;1.33;;;;;;;;;;5045461;28;20034;-72
2021/04/07 02:43:10;;;;;;;0.63;0.30;;;;;;;;;;5044145;28;20021;-72
2021/04/07 02:45:36;;;;;;;1.75;0.63;;;;;;;;;;5045607;28;20037;-72
2021/04/07 02:48:02;;;;;;;3.67;0.88;;;;;;;;;;5045456;28;20029;-73
2021/04/07 02:50:28;;;;;;;8.07;0.63;;;;;;;;;;5045394;28;20030;-72
2021/04/07 02:52:54;;;;;;;7.47;1.35;;;;;;;;;;5045368;28;20044;-71
2021/04/07 02:55:20;;;;;;;4.53;0.65;;;;;;;;;;5045032;28;20025;-72
2021/04/07 02:57:47;;;;;;;1.45;0.73;;;;;;;;;;5045146;28;20028;-71
2021/04/07 03:00:13;;;;;;;1.10;0.57;;;;;;;;;;5045068;28;20100;-72
2021/04/07 03:02:39;;;;;;;1.42;0.70;;;;;;;;;;5044766;28;20033;-74
2021/04/07 03:05:05;;;;;;;0.68;0.28;;;;;;;;;;5045213;28;20064;-72
2021/04/07 03:07:31;;;;;;;2.75;0.32;;;;;;;;;;5045096;28;20037;-73
2021/04/07 03:09:57;;;;;;;2.15;0.65;;;;;;;;;;5045076;28;20037;-72
2021/04/07 03:12:23;;;;;;;0.47;0.43;;;;;;;;;;5043678;28;20040;-73
2021/04/07 03:14:50;;;;;;;3.58;1.20;;;;;;;;;;5043294;28;20030;-72
2021/04/07 03:17:16;;;;;;;1.45;0.90;;;;;;;;;;5043666;28;20032;-73
2021/04/07 03:19:42;;;;;;;12.55;1.50;;;;;;;;;;5043401;28;20041;-72
2021/04/07 03:22:08;;;;;;;4.82;1.15;;;;;;;;;;5044908;28;20026;-71
2021/04/07 03:24:34;;;;;;;0.70;0.50;;;;;;;;;;5043669;28;20125;-72
2021/04/07 03:27:00;;;;;;;6.95;1.23;;;;;;;;;;5044923;28;20025;-73
2021/04/07 03:29:26;;;;;;;1.15;0.45;;;;;;;;;;5043401;28;20022;-73
2021/04/07 03:31:53;;;;;;;3.50;0.50;;;;;;;;;;5044614;28;20100;-73
2021/04/07 03:34:19;;;;;;;1.48;0.85;;;;;;;;;;5043626;28;20022;-73
2021/04/07 03:36:45;;;;;;;1.38;0.70;;;;;;;;;;5043287;28;20037;-72
2021/04/07 03:39:11;;;;;;;0.80;0.38;;;;;;;;;;5043263;28;20033;-74
2021/04/07 03:41:37;;;;;;;13.38;0.85;;;;;;;;;;5044752;28;20052;-72
2021/04/07 03:44:04;;;;;;;10.15;1.17;;;;;;;;;;5044463;28;20029;-74
2021/04/07 03:46:30;;;;;;;8.73;1.58;;;;;;;;;;5042769;28;20092;-70
2021/04/07 03:48:56;;;;;;;0.47;0.47;;;;;;;;;;5044416;28;20025;-71
2021/04/07 03:51:21;;;;;;;1.85;0.75;;;0.20;99.90;;;;;;5044393;28;20049;-74
2021/04/07 03:53:48;;;;;;;3.13;0.70;;;-0.10;99.90;;;;;;5044351;28;20057;-74
2021/04/07 03:56:14;;;;;;;2.38;0.80;;;-0.20;99.90;;;;;;5043208;28;20053;-71
2021/04/07 03:58:40;;;;;;;1.02;0.82;;;-0.20;99.90;;;;;;5044398;28;20034;-74
2021/04/07 04:01:05;;;;;;;2.90;1.35;;;-0.20;99.90;;;;;;5044690;28;20033;-73
2021/04/07 04:03:31;;;;;;;8.48;2.00;;;-0.20;99.90;;;;;;5044512;28;20058;-73
2021/04/07 04:05:58;;;;;;;4.95;1.90;;;-0.20;99.90;;;;;;5044316;28;20025;-73
2021/04/07 04:08:23;;;;;;;1.75;0.68;;;-0.30;99.90;;;;;;5044334;28;20537;-72
2021/04/07 04:10:49;;;;;;;2.75;1.08;;;-0.30;99.90;;;;;;5042998;28;20029;-73
2021/04/07 04:13:15;;;;;;;6.57;1.02;;;-0.30;99.90;;;;;;5044322;28;20481;-72
2021/04/07 04:15:41;;;;;;;0.68;0.60;;;-0.30;99.90;;;;;;5044190;28;20025;-73
2021/04/07 04:18:08;;;;;;;0.70;0.57;;;-0.30;99.90;;;;;;5042653;28;20623;-72
2021/04/07 04:20:34;;;;;;;1.92;0.75;;;-0.30;99.90;;;;;;5044063;28;20029;-74
2021/04/07 04:23:00;;;;;;;9.35;1.08;;;-0.30;99.90;;;;;;5042508;28;20045;-71
2021/04/07 04:25:26;;;;;;;1.13;0.57;;;-0.30;99.90;;;;;;5044297;28;20034;-75
2021/04/07 04:27:52;;;;;;;1.88;0.98;;;-0.30;99.90;;;;;;5044031;28;20033;-75
2021/04/07 04:30:20;;;;;;;3.88;1.02;;;-0.30;99.90;;;;;;5044228;28;20067;-74
2021/04/07 04:32:47;;;;;;;7.88;0.90;;;-0.30;99.90;;;;;;5044217;28;20052;-73
2021/04/07 04:35:13;;;;;;;2.47;0.70;;;-0.30;99.90;;;;;;5042604;28;20032;-73
2021/04/07 04:37:39;;;;;;;6.80;1.17;;;-0.30;99.90;;;;;;5043968;28;20112;-74
2021/04/07 04:40:06;;;;;;;7.13;1.40;;;-0.30;99.90;;;;;;5043269;28;20064;-75
2021/04/07 04:42:33;;;;;;;8.90;1.10;;;-0.30;99.90;;;;;;5044267;28;20037;-75
2021/04/07 04:44:59;;;;;;;5.07;0.50;;;-0.30;99.90;;;;;;5044965;28;20139;-73
2021/04/07 04:47:24;;;;;;;4.53;2.05;;;-0.30;99.90;;;;;;5044706;28;20112;-73
2021/04/07 04:49:51;;;;;;;1.10;0.70;;;-0.20;99.90;;;;;;5046077;28;20029;-74
2021/04/07 04:52:17;;;;;;;5.43;1.00;;;-0.20;99.90;;;;;;5045028;28;20045;-75
2021/04/07 04:54:43;;;;;;;6.38;0.70;;;-0.20;99.90;;;;;;5045206;28;20089;-75
2021/04/07 04:57:08;;;;;;;9.13;2.00;;;-0.20;99.90;;;;;;5044819;28;20025;-74
2021/04/07 04:59:35;;;;;;;7.90;0.80;;;-0.10;99.90;;;;;;5046076;28;20045;-76
2021/04/07 05:02:01;;;;;;;0.98;0.55;;;-0.10;99.90;;;;;;5046653;28;20110;-75
2021/04/07 05:04:26;;;;;;;3.42;0.98;;;-0.10;99.90;;;;;;5047242;28;20811;-74
2021/04/07 05:06:52;;;;;;;15.25;1.55;;;0.00;99.90;;;;;;5047174;28;20029;-75
2021/04/07 05:09:18;;;;;;;2.00;0.85;;;0.00;99.90;;;;;;5047173;28;20049;-74
2021/04/07 05:11:43;;;;;;;4.55;1.05;;;0.10;99.90;;;;;;5047479;28;20025;-74
2021/04/07 05:14:09;;;;;;;6.45;1.23;;;0.10;99.90;;;;;;5046733;28;20034;-74
2021/04/07 05:16:35;;;;;;;0.85;0.75;;;0.10;99.90;;;;;;5047105;28;20034;-75
2021/04/07 05:19:00;;;;;;;1.45;0.65;;;0.10;99.90;;;;;;5046866;28;20129;-73
2021/04/07 05:21:26;;;;;;;6.90;1.30;;;0.20;99.90;;;;;;5047032;28;20524;-74
2021/04/07 05:23:52;;;;;;;12.98;1.08;;;0.20;99.90;;;;;;5046657;28;20045;-75
2021/04/07 05:26:18;;;;;;;3.17;1.33;;;0.20;99.90;;;;;;5046909;28;20033;-75
2021/04/07 05:28:48;;;;;;;8.93;1.27;;;0.20;99.90;;;;;;5045641;28;20418;-75
2021/04/07 05:31:15;;;;;;;5.55;1.17;;;0.30;99.90;;;;;;5046937;28;20525;-74
2021/04/07 05:33:42;;;;;;;1.67;0.63;;;0.30;99.90;;;;;;5046710;28;20022;-73
2021/04/07 05:36:13;;;;;;;13.00;1.98;;;0.30;99.90;;;;;;5047019;28;20026;-75
2021/04/07 05:38:40;;;;;;;2.28;1.10;;;0.30;99.90;;;;;;5046737;28;20091;-72
2021/04/07 05:41:11;;;;;;;9.80;1.10;;;0.40;99.90;;;;;;5046426;28;20036;-74
2021/04/07 05:43:39;;;;;;;9.57;1.63;;;0.40;99.90;;;;;;5046459;28;20060;-73
2021/04/07 05:46:06;;;;;;;4.07;1.98;;;0.40;99.90;;;;;;5045299;28;20021;-73
2021/04/07 05:48:32;;;;;;;2.13;1.02;;;0.40;99.90;;;;;;5046664;28;20036;-75
2021/04/07 05:50:59;;;;;;;3.45;1.70;;;0.50;99.90;;;;;;5046678;28;20723;-78
2021/04/07 05:53:24;;;;;;;0.65;0.50;;;0.50;99.90;;;;;;5045018;28;20092;-74
2021/04/07 05:55:55;;;;;;;11.32;1.73;;;0.50;99.90;;;;;;5045964;28;20080;-75
2021/04/07 05:58:22;;;;;;;3.60;1.38;;;0.60;99.90;;;;;;5046170;28;20079;-74
2021/04/07 06:00:48;;;;;;;3.35;0.80;;;0.60;99.90;;;;;;5046220;28;20029;-72
2021/04/07 06:03:14;;;;;;;2.72;1.10;;;0.60;99.90;;;;;;5045897;28;20049;-74
2021/04/07 06:05:43;;;;;;;4.95;1.33;;;0.70;99.90;;;;;;5044746;28;20022;-72
2021/04/07 06:08:11;;;;;;;7.55;1.60;;;0.70;99.90;;;;;;5046074;28;20025;-74
2021/04/07 06:10:41;;;;;;;2.88;0.93;;;0.80;99.90;;;;;;5046092;28;20030;-73
2021/04/07 06:13:09;;;;;;;2.92;1.00;;;0.80;99.90;;;;;;5046084;28;20421;-73
2021/04/07 06:15:38;;;;;;;4.00;1.10;;;0.80;99.90;;;;;;5044716;28;20387;-74
2021/04/07 06:18:07;;;;;;;3.63;1.35;;;0.80;99.90;;;;;;5045609;28;20045;-75
2021/04/07 06:20:41;;;;;;;11.82;0.95;;;0.90;99.90;;;;;;5045844;28;20386;-74
2021/04/07 06:23:08;;;;;;;3.17;0.95;;;0.90;99.90;;;;;;5046208;28;20029;-74
2021/04/07 06:25:35;;;;;;;3.58;1.15;;;1.00;99.90;;;;;;5045974;28;20033;-74
2021/04/07 06:28:05;;;;;;;1.05;0.68;;;1.00;99.90;;;;;;5044641;28;20339;-73
2021/04/07 06:30:46;;;;;;;0.77;0.73;;;1.00;99.90;;;;;;5046030;28;20108;-74
2021/04/07 06:33:44;;;;;;;0.95;0.65;;;1.00;99.90;;;;;;5045767;28;20053;-73
2021/04/07 06:36:11;;;;;;;1.05;0.68;;;1.10;99.90;;;;;;5043534;28;20064;-73
2021/04/07 06:38:38;;;;;;;2.47;1.10;;;1.10;99.90;;;;;;5045417;28;20040;-74
2021/04/07 06:41:05;;;;;;;12.05;1.70;;;1.20;99.90;;;;;;5045266;28;20030;-76
2021/04/07 06:43:34;;;;;;;0.73;0.50;;;1.30;99.90;;;;;;5045388;28;20089;-74
2021/04/07 06:46:00;;;;;;;1.15;0.63;;;1.30;99.90;;;;;;5045186;28;20449;-73
2021/04/07 06:48:27;;;;;;;3.30;0.95;;;1.30;99.90;;;;;;5044751;28;20473;-73
2021/04/07 06:50:54;;;;;;;4.68;0.63;;;1.40;99.90;;;;;;5045157;28;20048;-74
2021/04/07 06:53:25;;;;;;;2.00;0.82;;;1.40;99.90;;;;;;5043215;28;20410;-73
2021/04/07 06:55:51;;;;;;;1.33;0.82;;;1.50;99.90;;;;;;5044836;28;20030;-73
2021/04/07 06:58:16;;;;;;;0.60;0.40;;;1.50;99.90;;;;;;5045008;28;20040;-75
2021/04/07 07:00:42;;;;;;;1.88;1.05;;;1.50;99.90;;;;;;5041700;28;20070;-73
2021/04/07 07:03:11;;;;;;;1.00;0.73;;;1.50;99.90;;;;;;5044595;28;20068;-73
2021/04/07 07:05:40;;;;;;;2.17;1.00;;;1.50;99.90;;;;;;5042757;28;20394;-73
2021/04/07 07:08:09;;;;;;;1.05;0.63;;;1.50;99.90;;;;;;5044312;28;20033;-72
2021/04/07 07:10:52;;;;;;;2.85;0.77;;;1.60;99.90;;;;;;5044461;28;20032;-71
2021/04/07 07:13:25;;;;;;;0.70;0.70;;;1.60;99.90;;;;;;5043584;28;20030;-73
2021/04/07 07:15:53;;;;;;;3.20;0.50;;;1.70;99.90;;;;;;5043583;28;20462;-73
2021/04/07 07:18:28;;;;;;;1.60;0.90;;;1.70;99.90;;;;;;5044313;28;20073;-72
2021/04/07 07:20:55;;;;;;;1.92;1.10;;;1.80;99.90;;;;;;5043310;28;20120;-73
2021/04/07 07:23:21;;;;;;;0.60;0.60;;;1.80;99.90;;;;;;5044569;28;20041;-71
2021/04/07 07:25:55;;;;;;;3.28;0.98;;;1.90;99.90;;;;;;5044631;28;20033;-71
2021/04/07 07:28:21;;;;;;;1.23;0.60;;;1.90;99.90;;;;;;5044442;28;20110;-72
2021/04/07 07:30:47;;;;;;;2.10;1.10;;;2.00;99.90;;;;;;5042608;28;20097;-73
2021/04/07 07:33:24;;;;;;;2.28;1.00;;;2.00;99.90;;;;;;5043907;28;20030;-72
2021/04/07 07:35:52;;;;;;;2.15;0.95;;;2.20;99.90;;;;;;5043576;28;20025;-71
2021/04/07 07:38:27;;;;;;;0.90;0.55;;;2.20;99.90;;;;;;5042054;28;20034;-72
2021/04/07 07:41:02;;;;;;;0.93;0.63;;;2.20;99.90;;;;;;5043563;28;20025;-73
2021/04/07 07:43:28;;;;;;;1.92;0.80;;;2.30;99.90;;;;;;5042849;28;20026;-72
2021/04/07 07:45:54;;;;;;;2.47;1.00;;;2.40;99.90;;;;;;5041999;28;20034;-72
2021/04/07 07:48:21;;;;;;;1.63;0.88;;;2.30;99.90;;;;;;5043453;28;20022;-73
2021/04/07 07:50:48;;;;;;;0.90;0.40;;;2.40;99.90;;;;;;5043136;28;20058;-73
2021/04/07 07:53:19;;;;;;;1.95;0.65;;;2.50;99.90;;;;;;5043567;28;20022;-72
2021/04/07 07:55:47;;;;;;;0.95;0.60;;;2.50;99.90;;;;;;5042927;28;20168;-73
2021/04/07 07:58:13;;;;;;;1.30;0.73;;;2.50;99.90;;;;;;5043450;28;20030;-74
2021/04/07 08:00:39;;;;;;;1.00;0.68;;;2.50;99.90;;;;;;5043450;28;20493;-74
2021/04/07 08:03:14;;;;;;;1.10;0.50;;;2.60;99.90;;;;;;5043868;28;20026;-72
2021/04/07 08:05:42;;;;;;;1.02;0.60;;;2.60;99.90;;;;;;5043490;28;20040;-73
2021/04/07 08:08:10;;;;;;;0.95;0.40;;;2.60;99.90;;;;;;5042299;28;20093;-73
2021/04/07 08:10:38;;;;;;;1.77;0.60;;;2.60;99.90;;;;;;5043113;28;20032;-72
2021/04/07 08:13:08;;;;;;;2.40;0.60;;;2.60;99.90;;;;;;5043326;28;20018;-76
2021/04/07 08:15:37;;;;;;;2.10;0.95;;;2.70;99.90;;;;;;5043541;28;20052;-74
2021/04/07 08:18:07;;;;;;;0.70;0.50;;;2.70;99.90;;;;;;5042188;28;20064;-75
2021/04/07 08:20:37;;;;;;;1.42;0.60;;;2.70;99.90;;;;;;5043687;28;20033;-74
2021/04/07 08:23:06;;;;;;;2.30;0.95;;;2.80;99.90;;;;;;5043588;28;20037;-73
2021/04/07 08:25:33;;;;;;;2.30;1.27;;;2.80;99.90;;;;;;5042137;28;20093;-73
2021/04/07 08:28:00;;;;;;;3.47;1.20;;;2.90;99.90;;;;;;5040076;28;20087;-73
2021/04/07 08:30:27;;;;;;;2.55;1.35;;;2.90;99.90;;;;;;5042925;28;20136;-70
2021/04/07 08:32:53;;;;;;;1.98;1.00;;;3.00;99.90;;;;;;5045503;28;20376;-72
2021/04/07 08:35:22;;;;;;;0.73;0.38;;;3.10;99.90;;;;;;5046410;28;20041;-73
2021/04/07 08:38:04;;;;;;;0.77;0.70;;;3.10;99.90;;;;;;5046689;28;20029;-72
2021/04/07 08:40:39;;;;;;;2.25;0.60;;;3.10;99.90;;;;;;5046894;28;20096;-72
2021/04/07 08:43:12;;;;;;;0.95;0.43;;;3.20;99.90;;;;;;5046631;28;20084;-72
2021/04/07 08:45:45;;;;;;;0.88;0.52;;;3.30;99.90;;;;;;5046977;28;20113;-73
2021/04/07 08:48:22;;;;;;;0.30;0.30;;;3.40;99.90;;;;;;5046155;28;20112;-73
2021/04/07 08:51:11;;;;;;;1.13;0.73;;;3.60;99.90;;;;;;5046164;28;20482;-75
2021/04/07 08:53:45;;;;;;;2.03;0.60;;;3.80;99.90;;;;;;5046373;28;20037;-74
2021/04/07 08:56:16;;;;;;;1.88;0.75;;;4.10;99.90;;;;;;5042126;28;20034;-72
2021/04/07 08:58:56;;;;;;;1.65;0.63;;;4.50;99.90;;;;;;5043936;28;20207;-73
2021/04/07 09:01:32;;;;;;;1.02;0.68;;;4.80;99.90;;;;;;5043686;28;20112;-72
2021/04/07 09:04:19;;;;;;;0.75;0.50;;;4.90;99.90;;;;;;5043903;28;20030;-74
2021/04/07 09:07:00;;;;;;;2.70;0.82;;;5.00;99.90;;;;;;5044759;28;20049;-70
2021/04/07 09:09:27;;;;;;;1.05;0.75;;;4.90;99.90;;;;;;5047217;28;20169;-69
2021/04/07 09:11:53;;;;;;;2.25;0.70;;;4.90;99.90;;;;;;5046801;28;20033;-73
2021/04/07 09:14:22;;;;;;;1.60;0.68;;;5.20;99.90;;;;;;5047161;28;20024;-71
2021/04/07 09:16:47;;;;;;;0.65;0.38;;;5.40;99.90;;;;;;5046978;28;20052;-70
2021/04/07 09:19:19;;;;;;;3.60;0.80;;;5.70;99.90;;;;;;5046711;28;20049;-75
2021/04/07 09:21:53;;;;;;;6.07;0.80;;;5.90;99.90;;;;;;5047068;28;20032;-73
2021/04/07 09:24:20;;;;;;;3.73;0.80;;;5.80;99.90;;;;;;5046743;28;20021;-73
2021/04/07 09:26:47;;;;;;;1.67;0.80;;;5.70;99.90;;;;;;5046666;28;20036;-72
2021/04/07 09:29:14;;;;;;;0.88;0.68;;;5.70;99.90;;;;;;5046620;28;20045;-72
2021/04/07 09:31:40;;;;;;;1.00;0.55;;;5.50;99.90;;;;;;5044942;28;20034;-73
2021/04/07 09:34:06;;;;;;;1.20;0.80;;;5.30;99.90;;;;;;5046470;28;20032;-73
2021/04/07 09:36:36;;;;;;;1.75;0.90;;;5.20;99.90;;;;;;5046323;28;20033;-73
2021/04/07 09:39:14;;;;;;;1.80;0.85;;;5.10;99.90;;;;;;5045471;28;20029;-71
2021/04/07 09:41:44;;;;;;;1.13;0.50;;;5.10;99.90;;;;;;5046885;28;20021;-73
2021/04/07 09:44:14;;;;;;;2.53;0.93;;;5.30;99.90;;;;;;5045518;28;20080;-74
2021/04/07 09:46:40;;;;;;;4.05;1.65;;;5.80;99.90;;;;;;5046480;28;20474;-72
2021/04/07 09:49:10;;;;;;;1.67;0.77;;;6.30;99.90;;;;;;5046422;28;20538;-74
2021/04/07 09:51:40;;;;;;;2.55;0.63;;;6.70;99.90;;;;;;5046355;28;20060;-75
2021/04/07 09:54:16;;;;;;;1.52;1.20;;;7.10;99.90;;;;;;5046837;28;20068;-73
2021/04/07 09:56:46;;;;;;;4.13;0.98;;;7.10;99.90;;;;;;5046149;28;20494;-72
2021/04/07 09:59:11;;;;;;;2.45;0.80;;;6.90;99.90;;;;;;5046047;28;20037;-74
2021/04/07 10:01:38;;;;;;;1.45;0.90;;;6.70;99.90;;;;;;5045764;28;20369;-73
2021/04/07 10:04:06;;;;;;;1.20;0.50;;;6.60;99.90;;;;;;5046290;28;20036;-74
2021/04/07 10:06:31;;;;;;;1.67;0.77;;;6.40;99.90;;;;;;5046420;28;20037;-71
2021/04/07 10:09:10;;;;;;;1.95;0.73;;;6.40;99.90;;;;;;5046284;28;20030;-72
2021/04/07 10:11:39;;;;;;;1.40;0.80;;;6.20;99.90;;;;;;5045979;28;20039;-74
2021/04/07 10:14:06;;;;;;;2.28;0.90;;;6.20;99.90;;;;;;5045891;28;20028;-73
2021/04/07 10:16:38;;;;;;;0.98;0.68;;;6.20;99.90;;;;;;5046063;28;20025;-72
2021/04/07 10:19:09;;;;;;;0.82;0.50;;;6.10;99.90;;;;;;5045616;28;20121;-74
2021/04/07 10:21:38;;;;;;;1.83;0.80;;;6.10;99.90;;;;;;5045958;28;20030;-72
2021/04/07 10:24:06;;;;;;;2.30;1.15;;;6.00;99.90;;;;;;5044340;28;20535;-74
2021/04/07 10:26:32;;;;;;;4.53;1.67;;;6.20;99.90;;;;;;5045759;28;20026;-71
2021/04/07 10:29:00;;;;;;;0.85;0.70;;;6.40;99.90;;;;;;5044725;28;20051;-72
2021/04/07 10:31:26;;;;;;;4.43;1.00;;;6.30;99.90;;;;;;5043020;28;20056;-73
2021/04/07 10:34:09;;;;;;;4.93;1.75;;;6.30;99.90;;;;;;5044923;28;20028;-72
2021/04/07 10:36:40;;;;;;;5.05;1.30;;;6.30;99.90;;;;;;5043966;28;20038;-73
2021/04/07 10:39:17;;;;;;;4.53;1.20;;;6.20;99.90;;;;;;5044306;28;20060;-76
2021/04/07 10:41:51;;;;;;;2.40;0.88;;;6.20;99.90;;;;;;5045252;28;20059;-73
2021/04/07 10:44:28;;;;;;;3.42;1.65;;;6.10;99.90;;;;;;5045132;28;20021;-73
2021/04/07 10:46:54;;;;;;;7.57;1.42;;;6.00;99.90;;;;;;5044847;28;20045;-73
2021/04/07 10:49:21;;;;;;;1.40;1.08;;;6.00;99.90;;;;;;5045071;28;20025;-71
2021/04/07 10:52:01;;;;;;;1.52;0.95;;;6.10;99.90;;;;;;5045083;28;20026;-72
2021/04/07 10:54:27;;;;;;;1.88;1.20;;;6.00;99.90;;;;;;5045082;28;20124;-72
2021/04/07 10:57:10;;;;;;;6.57;1.13;;;5.90;99.90;;;;;;5044612;28;20033;-72
2021/04/07 10:59:37;;;;;;;3.28;1.67;;;5.80;99.90;;;;;;5043786;28;20048;-74
2021/04/07 11:02:16;;;;;;;1.70;1.15;;;5.70;99.90;;;;;;5043011;28;20025;-74
2021/04/07 11:04:45;;;;;;;4.40;1.67;;;5.70;99.90;;;;;;5044805;28;20033;-73
2021/04/07 11:07:16;;;;;;;1.70;1.00;;;5.60;99.90;;;;;;5045061;28;20037;-75
2021/04/07 11:09:51;;;;;;;4.30;1.77;;;5.60;99.90;;;;;;5044690;28;20057;-75
2021/04/07 11:12:21;;;;;;;3.63;1.35;;;5.60;99.90;;;;;;5044629;28;20081;-74
2021/04/07 11:14:51;;;;;;;5.72;2.30;;;5.60;99.90;;;;;;5044942;28;20389;-76
2021/04/07 11:17:19;;;;;;;2.72;1.20;;;5.50;99.90;;;;;;5044857;28;20123;-71
2021/04/07 11:19:46;;;;;;;0.98;0.40;;;5.30;99.90;;;;;;5044582;28;20091;-73
2021/04/07 11:22:11;;;;;;;2.20;0.73;;;4.90;99.90;;;;;;5044816;28;20025;-71
2021/04/07 11:24:37;;;;;;;6.03;1.20;;;4.60;99.90;;;;;;5042971;28;20033;-74
2021/04/07 11:27:07;;;;;;;8.48;1.08;;;4.40;99.90;;;;;;5043226;28;20030;-73
2021/04/07 11:29:35;;;;;;;9.00;1.00;;;4.40;99.90;;;;;;5042612;28;20029;-75
2021/04/07 11:32:02;;;;;;;0.95;0.50;;;4.80;99.90;;;;;;5044543;28;20021;-75
2021/04/07 11:34:42;;;;;;;1.63;0.60;;;5.30;99.90;;;;;;5044514;28;20025;-74
2021/04/07 11:37:31;;;;;;;1.90;0.68;;;5.80;99.90;;;;;;5042927;28;20442;-72
2021/04/07 11:40:04;;;;;;;7.00;0.93;;;6.10;99.90;;;;;;5044645;28;20064;-73
2021/04/07 11:45:18;;;;;;;4.97;1.42;;;7.10;99.90;;;;;;5042464;28;20040;-74
2021/04/07 11:47:44;;;;;;;2.47;1.02;;;7.60;99.90;;;;;;5042980;28;20124;-74
2021/04/07 11:50:11;;;;;;;3.40;1.60;;;7.90;99.90;;;;;;5044185;28;20398;-74
2021/04/07 11:52:36;;;;;;;3.60;1.50;;;8.10;99.90;;;;;;5044767;28;20029;-74
2021/04/07 11:55:02;;;;;;;9.43;1.92;;;8.00;99.90;;;;;;5043087;28;20037;-75
2021/04/07 11:57:28;;;;;;;6.35;1.83;;;8.00;99.90;;;;;;5043255;28;20448;-73
2021/04/07 11:59:55;;;;;;;3.50;1.20;;;7.90;99.90;;;;;;5042769;28;20045;-74
2021/04/07 12:02:21;;;;;;;3.60;1.23;;;7.90;99.90;;;;;;5044373;28;20075;-74
2021/04/07 12:04:47;;;;;;;7.07;1.10;;;7.90;99.90;;;;;;5044390;28;20029;-75
2021/04/07 12:07:14;;;;;;;13.27;1.55;;;7.80;99.90;;;;;;5045795;28;20029;-72
2021/04/07 12:09:46;;;;;;;12.55;1.35;;;7.40;99.90;;;;;;5047111;28;20083;-72
2021/04/07 12:12:12;;;;;;;3.17;1.05;;;7.20;99.90;;;;;;5046848;28;20030;-72
2021/04/07 12:14:38;;;;;;;8.30;1.98;;;7.20;99.90;;;;;;5047656;28;20060;-73
2021/04/07 12:17:04;;;;;;;2.53;1.08;;;7.50;99.90;;;;;;5046690;28;20021;-73
2021/04/07 12:19:31;;;;;;;9.05;1.27;;;7.40;99.90;;;;;;5047915;28;20045;-72
2021/04/07 12:21:57;;;;;;;3.45;1.58;;;7.20;99.90;;;;;;5046625;28;20505;-73
2021/04/07 12:24:23;;;;;;;4.32;0.63;;;7.00;99.90;;;;;;5048005;28;20033;-73
2021/04/07 12:26:48;;;;;;;6.57;1.58;;;7.10;99.90;;;;;;5048440;28;20026;-72
2021/04/07 12:29:14;;;;;;;5.05;1.02;;;7.10;99.90;;;;;;5046923;28;20053;-76
2021/04/07 12:31:39;;;;;;;7.47;0.73;;;6.90;99.90;;;;;;5047069;28;20040;-71
2021/04/07 12:34:05;;;;;;;0.65;0.43;;;6.90;99.90;;;;;;5047197;28;20022;-73
2021/04/07 12:36:32;;;;;;;3.20;1.23;;;6.70;99.90;;;;;;5043834;28;20029;-75
2021/04/07 12:39:00;;;;;;;5.25;1.02;;;6.70;99.90;;;;;;5047748;28;20203;-72
2021/04/07 12:41:30;;;;;;;10.60;0.80;;;7.00;99.90;;;;;;5047920;28;20025;-73
2021/04/07 12:43:56;;;;;;;3.85;0.90;;;7.60;99.90;;;;;;5046740;28;20037;-73
2021/04/07 12:46:21;;;;;;;1.70;0.63;;;8.00;99.90;;;;;;5047681;28;20085;-73
2021/04/07 12:48:48;;;;;;;1.98;0.63;;;8.30;99.90;;;;;;5047656;28;20026;-73
2021/04/07 12:51:15;;;;;;;3.92;0.40;;;8.30;99.90;;;;;;5047618;28;20026;-70
2021/04/07 12:53:40;;;;;;;2.13;0.73;;;8.10;99.90;;;;;;5044094;28;20026;-72
2021/04/07 12:56:08;;;;;;;0.65;0.30;;;7.80;99.90;;;;;;5044909;28;20032;-74
2021/04/07 12:58:33;;;;;;;12.00;2.22;;;7.50;99.90;;;;;;5046638;28;20041;-72
2021/04/07 13:00:59;;;;;;;8.55;1.27;;;7.60;99.90;;;;;;5046694;28;20038;-72
2021/04/07 13:03:25;;;;;;;4.03;0.98;;;7.90;99.90;;;;;;5046720;28;20072;-74
2021/04/07 13:05:50;;;;;;;3.83;1.38;;;8.50;99.90;;;;;;5044942;28;20037;-72
2021/04/07 13:08:16;;;;;;;9.98;1.48;;;9.00;99.90;;;;;;5046940;28;20494;-73
2021/04/07 13:10:41;;;;;;;11.50;1.33;;;9.30;99.90;;;;;;5045946;28;20049;-71
2021/04/07 13:13:07;;;;;;;4.25;0.75;;;9.50;99.90;;;;;;5045217;28;20476;-74
2021/04/07 13:15:34;;;;;;;3.10;1.35;;;9.50;99.90;;;;;;5045162;28;20029;-72